Time;durP1;ratioP1;P1;durP2;ratioP2;P2;SDS_P1;SDS_P2;PMS_P1;PMS_P2;Temp;Humidity;BMP_temperature;BMP_pressure;BME280_temperature;BME280_humidity;BME280_pressure;Samples;Min_cycle;Max_cycle;Signal;HPM_P1;HPM_P2
2021/01/22 00:02:09;;;;;;;1.20;1.10;;;10.40;99.90;;;;;;5057311;28;21612;-87
2021/01/22 00:04:36;;;;;;;1.30;1.00;;;10.50;99.90;;;;;;5060632;28;20211;-86
2021/01/22 00:07:02;;;;;;;1.10;1.00;;;10.50;99.90;;;;;;5059763;28;20223;-87
2021/01/22 00:09:28;;;;;;;1.70;1.10;;;10.50;99.90;;;;;;5061476;28;20268;-88
2021/01/22 00:11:55;;;;;;;1.73;1.03;;;10.60;99.90;;;;;;5058825;28;20203;-87
2021/01/22 00:14:21;;;;;;;2.17;1.30;;;10.50;99.90;;;;;;5056255;28;20207;-88
2021/01/22 00:16:51;;;;;;;1.10;0.93;;;10.50;99.90;;;;;;5062776;28;20271;-88
2021/01/22 00:19:19;;;;;;;2.73;1.20;;;10.50;99.90;;;;;;5056931;28;20219;-88
2021/01/22 00:21:45;;;;;;;0.90;0.90;;;10.60;99.90;;;;;;5057773;28;20364;-88
2021/01/22 00:24:11;;;;;;;0.83;0.83;;;10.60;99.90;;;;;;5058923;28;20226;-87
2021/01/22 00:26:38;;;;;;;0.70;0.70;;;10.50;99.90;;;;;;5058939;28;20818;-86
2021/01/22 00:29:07;;;;;;;3.10;1.03;;;10.60;99.90;;;;;;5057278;28;20269;-86
2021/01/22 00:31:36;;;;;;;0.80;0.80;;;10.60;99.90;;;;;;5056196;28;20210;-87
2021/01/22 00:34:02;;;;;;;1.00;0.90;;;10.40;99.90;;;;;;5058767;28;20221;-88
2021/01/22 00:36:30;;;;;;;0.97;0.90;;;10.40;99.90;;;;;;5057190;28;20599;-86
2021/01/22 00:38:56;;;;;;;1.23;0.90;;;10.40;99.90;;;;;;5057858;28;20207;-88
2021/01/22 00:41:22;;;;;;;1.30;1.00;;;10.40;99.90;;;;;;5061035;28;20222;-87
2021/01/22 00:43:48;;;;;;;1.07;0.97;;;10.50;99.90;;;;;;5057676;28;20207;-87
2021/01/22 00:46:15;;;;;;;0.80;0.80;;;10.40;99.90;;;;;;5058394;28;20617;-87
2021/01/22 00:48:41;;;;;;;0.97;0.80;;;10.40;99.90;;;;;;5060727;28;20222;-87
2021/01/22 00:51:10;;;;;;;2.13;0.87;;;10.30;99.90;;;;;;5061156;28;20302;-88
2021/01/22 00:53:39;;;;;;;0.80;0.80;;;10.60;99.90;;;;;;5060554;28;20230;-88
2021/01/22 00:56:05;;;;;;;1.27;1.07;;;10.70;99.90;;;;;;5057187;28;20207;-87
2021/01/22 00:58:34;;;;;;;1.10;1.00;;;10.70;99.90;;;;;;5058231;28;20211;-87
2021/01/22 01:01:03;;;;;;;0.90;0.90;;;10.60;99.90;;;;;;5057333;28;20605;-87
2021/01/22 01:03:31;;;;;;;0.90;0.90;;;10.60;99.90;;;;;;5059074;28;20208;-88
2021/01/22 01:06:07;;;;;;;1.20;1.03;;;10.60;99.90;;;;;;5058416;28;20826;-88
2021/01/22 01:08:38;;;;;;;0.97;0.80;;;10.60;99.90;;;;;;5058146;28;20207;-87
2021/01/22 01:11:11;;;;;;;1.23;1.13;;;10.60;99.90;;;;;;5057144;28;20257;-87
2021/01/22 01:13:43;;;;;;;2.20;1.07;;;10.60;99.90;;;;;;5057327;28;20932;-87
2021/01/22 01:16:15;;;;;;;1.40;1.27;;;10.80;99.90;;;;;;5058198;28;20686;-88
2021/01/22 01:18:45;;;;;;;1.83;1.03;;;10.60;99.90;;;;;;5057193;28;20623;-88
2021/01/22 01:21:17;;;;;;;2.53;0.90;;;10.60;99.90;;;;;;5053844;28;20709;-87
2021/01/22 01:23:48;;;;;;;1.20;1.10;;;10.50;99.90;;;;;;5054649;28;20230;-88
2021/01/22 01:26:14;;;;;;;1.00;1.00;;;10.50;99.90;;;;;;5061309;28;20207;-86
2021/01/22 01:28:45;;;;;;;1.20;1.00;;;10.50;99.90;;;;;;5060650;28;20220;-87
2021/01/22 01:31:12;;;;;;;0.90;0.80;;;10.50;99.90;;;;;;5062957;28;20286;-87
2021/01/22 01:33:41;;;;;;;1.20;1.10;;;10.50;99.90;;;;;;5052437;28;20298;-89
2021/01/22 01:36:14;;;;;;;1.27;1.00;;;10.50;99.90;;;;;;5058386;28;20298;-87
2021/01/22 01:38:40;;;;;;;1.30;1.00;;;10.60;99.90;;;;;;5060866;28;20241;-86
2021/01/22 01:41:08;;;;;;;1.30;1.20;;;10.50;99.90;;;;;;5054370;28;20215;-86
2021/01/22 01:43:37;;;;;;;1.57;0.97;;;10.50;99.90;;;;;;5058573;28;20199;-87
2021/01/22 01:46:20;;;;;;;2.50;1.37;;;10.60;99.90;;;;;;5049721;28;20200;-87
2021/01/22 01:49:05;;;;;;;1.23;1.07;;;10.60;99.90;;;;;;5053811;28;20195;-87
2021/01/22 01:51:40;;;;;;;2.20;0.90;;;10.60;99.90;;;;;;5058594;28;20195;-87
2021/01/22 01:54:17;;;;;;;1.37;1.17;;;10.80;99.90;;;;;;5059362;28;20202;-88
2021/01/22 01:56:46;;;;;;;2.53;1.20;;;10.70;99.90;;;;;;5058185;28;20865;-87
2021/01/22 01:59:27;;;;;;;1.10;1.00;;;10.80;99.90;;;;;;5058831;28;20254;-88
2021/01/22 02:01:58;;;;;;;1.23;1.13;;;10.80;99.90;;;;;;5056190;28;20278;-87
2021/01/22 02:04:25;;;;;;;1.33;1.23;;;10.80;99.90;;;;;;5057649;28;20727;-87
2021/01/22 02:06:56;;;;;;;1.07;1.00;;;10.60;99.90;;;;;;5057027;28;20203;-88
2021/01/22 02:09:29;;;;;;;2.63;1.50;;;10.60;99.90;;;;;;5053831;28;20239;-87
2021/01/22 02:12:04;;;;;;;2.10;1.50;;;10.50;99.90;;;;;;5056841;28;20203;-87
2021/01/22 02:14:37;;;;;;;1.50;1.40;;;10.60;99.90;;;;;;5059533;28;20615;-88
2021/01/22 02:17:07;;;;;;;1.30;1.20;;;10.60;99.90;;;;;;5055335;28;20195;-87
2021/01/22 02:19:47;;;;;;;2.53;1.47;;;10.50;99.90;;;;;;5056707;28;20266;-87
2021/01/22 02:22:14;;;;;;;3.70;1.43;;;10.50;99.90;;;;;;5057668;28;20203;-88
2021/01/22 02:24:45;;;;;;;1.17;1.07;;;10.40;99.90;;;;;;5058598;28;20579;-88
2021/01/22 02:27:22;;;;;;;1.40;1.30;;;10.40;99.90;;;;;;5060102;28;20210;-87
2021/01/22 02:29:51;;;;;;;1.83;1.30;;;10.50;99.90;;;;;;5060375;28;20227;-87
2021/01/22 02:32:24;;;;;;;1.40;1.30;;;10.40;99.90;;;;;;5060496;28;20203;-87
2021/01/22 02:34:57;;;;;;;1.60;1.30;;;10.50;99.90;;;;;;5058049;28;20199;-88
2021/01/22 02:37:46;;;;;;;1.37;1.27;;;10.60;99.90;;;;;;5057917;28;20207;-89
2021/01/22 02:40:23;;;;;;;1.53;1.13;;;10.40;99.90;;;;;;5057534;28;20314;-87
2021/01/22 02:42:51;;;;;;;2.03;1.23;;;10.20;99.90;;;;;;5056061;28;20203;-88
2021/01/22 02:45:18;;;;;;;2.93;1.20;;;10.10;99.90;;;;;;5056919;28;20286;-88
2021/01/22 02:47:51;;;;;;;1.67;1.10;;;10.20;99.90;;;;;;5057179;28;20203;-88
2021/01/22 02:50:22;;;;;;;1.67;1.53;;;10.20;99.90;;;;;;5058150;28;20219;-87
2021/01/22 02:52:51;;;;;;;2.10;1.17;;;10.20;99.90;;;;;;5059954;28;20698;-87
2021/01/22 02:55:33;;;;;;;1.63;1.30;;;10.20;99.90;;;;;;5074257;28;20199;-88
2021/01/22 02:58:12;;;;;;;1.27;1.10;;;10.30;99.90;;;;;;5072299;28;20199;-87
2021/01/22 03:01:00;;;;;;;1.17;1.07;;;10.30;99.90;;;;;;5071789;28;20215;-89
2021/01/22 03:03:45;;;;;;;2.80;1.10;;;10.40;99.90;;;;;;5062936;28;20273;-88
2021/01/22 03:06:22;;;;;;;1.40;1.27;;;10.30;99.90;;;;;;5055426;28;20214;-88
2021/01/22 03:08:55;;;;;;;2.00;1.27;;;10.40;99.90;;;;;;5056827;28;20294;-87
2021/01/22 03:11:27;;;;;;;2.20;1.57;;;10.40;99.90;;;;;;5055584;28;20224;-87
2021/01/22 03:14:20;;;;;;;1.33;1.20;;;10.50;99.90;;;;;;5052021;28;20242;-88
2021/01/22 03:16:58;;;;;;;1.60;1.27;;;10.40;99.90;;;;;;5047960;28;20265;-87
2021/01/22 03:19:43;;;;;;;1.20;1.10;;;10.50;99.90;;;;;;5049650;28;20223;-87
2021/01/22 03:22:10;;;;;;;2.07;1.63;;;10.50;99.90;;;;;;5052080;28;20325;-87
2021/01/22 03:25:01;;;;;;;2.57;1.17;;;10.50;99.90;;;;;;5054018;28;20233;-86
2021/01/22 03:27:32;;;;;;;1.13;1.00;;;10.70;99.90;;;;;;5054466;28;20295;-88
2021/01/22 03:30:06;;;;;;;2.53;1.07;;;10.70;99.90;;;;;;5054236;28;20230;-87
2021/01/22 03:32:32;;;;;;;3.47;1.50;;;10.70;99.90;;;;;;5033639;28;20811;-86
2021/01/22 03:35:01;;;;;;;2.60;1.30;;;10.70;99.90;;;;;;5051734;28;20290;-87
2021/01/22 03:37:35;;;;;;;3.23;1.37;;;10.90;99.90;;;;;;5054205;28;20293;-87
2021/01/22 03:40:02;;;;;;;2.90;0.90;;;10.90;99.90;;;;;;5062074;28;20229;-87
2021/01/22 03:42:28;;;;;;;3.43;1.40;;;10.80;99.90;;;;;;5076143;28;20190;-87
2021/01/22 03:45:09;;;;;;;3.50;1.20;;;10.80;99.90;;;;;;5070397;28;20191;-89
2021/01/22 03:47:44;;;;;;;1.63;1.00;;;10.70;99.90;;;;;;5065174;28;20199;-87
2021/01/22 03:50:13;;;;;;;1.97;1.20;;;10.80;99.90;;;;;;5060084;28;20218;-88
2021/01/22 03:52:43;;;;;;;1.80;1.40;;;10.80;99.90;;;;;;5060964;28;20210;-87
2021/01/22 03:55:10;;;;;;;3.53;1.50;;;10.80;99.90;;;;;;5060226;28;20207;-88
2021/01/22 03:57:47;;;;;;;1.53;1.00;;;10.80;99.90;;;;;;5058130;28;20199;-88
2021/01/22 04:00:33;;;;;;;2.50;1.23;;;10.80;99.90;;;;;;5062144;28;20288;-87
2021/01/22 04:03:01;;;;;;;1.70;0.93;;;10.70;99.90;;;;;;5058509;28;20199;-88
2021/01/22 04:05:32;;;;;;;1.40;0.93;;;10.80;99.90;;;;;;5057855;28;20211;-88
2021/01/22 04:08:05;;;;;;;2.60;1.17;;;10.80;99.90;;;;;;5057340;28;20214;-88
2021/01/22 04:10:31;;;;;;;3.10;1.30;;;10.80;99.90;;;;;;5057587;28;20219;-88
2021/01/22 04:13:01;;;;;;;2.70;1.30;;;10.80;99.90;;;;;;5058187;28;20215;-89
2021/01/22 04:15:47;;;;;;;2.23;1.13;;;10.80;99.90;;;;;;5057065;28;20202;-88
2021/01/22 04:18:38;;;;;;;2.47;0.83;;;10.90;99.90;;;;;;5057009;28;20203;-87
2021/01/22 04:21:16;;;;;;;1.57;1.20;;;10.90;99.90;;;;;;5051333;28;20683;-87
2021/01/22 04:23:46;;;;;;;1.47;1.13;;;11.00;99.90;;;;;;5057065;28;20686;-88
2021/01/22 04:26:12;;;;;;;2.70;1.00;;;11.00;99.90;;;;;;5057313;28;20245;-87
2021/01/22 04:28:43;;;;;;;2.20;1.10;;;11.00;99.90;;;;;;5056961;28;20589;-87
2021/01/22 04:31:18;;;;;;;2.77;1.20;;;10.90;99.90;;;;;;5057812;28;20222;-88
2021/01/22 04:33:49;;;;;;;0.93;0.83;;;11.00;99.90;;;;;;5057867;28;20282;-89
2021/01/22 04:36:15;;;;;;;1.63;0.90;;;11.00;99.90;;;;;;5055960;28;20237;-87
2021/01/22 04:38:44;;;;;;;1.03;0.90;;;10.90;99.90;;;;;;5055779;28;20605;-87
2021/01/22 04:41:11;;;;;;;3.30;1.10;;;11.10;99.90;;;;;;5057352;28;20286;-87
2021/01/22 04:43:44;;;;;;;1.10;0.90;;;11.10;99.90;;;;;;5059538;28;20298;-87
2021/01/22 04:46:11;;;;;;;2.13;1.00;;;11.00;99.90;;;;;;5060278;28;20209;-88
2021/01/22 04:48:38;;;;;;;3.93;0.73;;;10.90;99.90;;;;;;5060175;28;20221;-87
2021/01/22 04:51:10;;;;;;;3.50;0.80;;;10.70;99.90;;;;;;5058922;28;20239;-88
2021/01/22 04:53:37;;;;;;;2.00;0.67;;;8.90;99.90;;;;;;5055049;28;20660;-88
2021/01/22 04:56:11;;;;;;;2.23;0.50;;;8.50;99.90;;;;;;5058479;28;20215;-88
2021/01/22 04:58:43;;;;;;;1.50;0.60;;;8.20;99.90;;;;;;5056057;28;20233;-88
2021/01/22 05:01:11;;;;;;;2.03;0.70;;;8.30;99.90;;;;;;5052761;28;20226;-87
2021/01/22 05:03:37;;;;;;;0.83;0.40;;;8.10;99.90;;;;;;5050316;28;20191;-88
2021/01/22 05:06:04;;;;;;;0.97;0.47;;;8.10;99.90;;;;;;5052421;28;20236;-87
2021/01/22 05:08:31;;;;;;;0.20;0.10;;;8.10;99.90;;;;;;5041578;28;20299;-87
2021/01/22 05:10:58;;;;;;;0.30;0.10;;;8.10;99.90;;;;;;5056861;28;20220;-87
2021/01/22 05:13:24;;;;;;;0.10;0.07;;;7.80;99.90;;;;;;5056404;28;20236;-87
2021/01/22 05:16:09;;;;;;;0.23;0.17;;;7.70;99.90;;;;;;5055537;28;20203;-87
2021/01/22 05:18:35;;;;;;;0.13;0.13;;;7.60;99.90;;;;;;5056748;28;20643;-87
2021/01/22 05:21:06;;;;;;;0.77;0.10;;;7.60;99.90;;;;;;5057803;28;20665;-86
2021/01/22 05:23:34;;;;;;;0.10;0.10;;;7.30;99.90;;;;;;5058804;28;20682;-86
2021/01/22 05:26:04;;;;;;;0.00;0.00;;;7.30;99.90;;;;;;5056264;28;20210;-87
2021/01/22 05:28:33;;;;;;;0.00;0.00;;;7.10;99.90;;;;;;5052025;28;20200;-87
2021/01/22 05:31:00;;;;;;;3.83;0.73;;;6.90;99.90;;;;;;5053767;28;20222;-86
2021/01/22 05:33:26;;;;;;;0.40;0.10;;;6.90;99.90;;;;;;5060531;28;20203;-87
2021/01/22 05:35:53;;;;;;;0.30;0.10;;;6.50;99.90;;;;;;5059654;28;20217;-86
2021/01/22 05:38:41;;;;;;;0.10;0.00;;;6.40;99.90;;;;;;5057443;28;20966;-86
2021/01/22 05:41:08;;;;;;;0.07;0.00;;;6.40;99.90;;;;;;5060495;28;20223;-86
2021/01/22 05:43:36;;;;;;;0.70;0.23;;;6.20;99.90;;;;;;5059545;28;20281;-87
2021/01/22 05:46:04;;;;;;;0.30;0.20;;;6.20;99.90;;;;;;5057918;28;20207;-86
2021/01/22 05:48:30;;;;;;;0.10;0.10;;;6.00;99.90;;;;;;5059878;28;20229;-87
2021/01/22 05:51:01;;;;;;;0.10;0.10;;;6.30;99.90;;;;;;5058463;28;20225;-87
2021/01/22 05:53:29;;;;;;;0.53;0.20;;;6.00;99.90;;;;;;5056958;28;20317;-86
2021/01/22 05:56:14;;;;;;;2.27;0.57;;;5.90;99.90;;;;;;5057569;28;20591;-88
2021/01/22 05:58:42;;;;;;;0.47;0.20;;;6.00;99.90;;;;;;5059464;28;20256;-87
2021/01/22 06:01:12;;;;;;;0.50;0.37;;;6.10;99.90;;;;;;5056209;28;20581;-87
2021/01/22 06:03:39;;;;;;;0.30;0.30;;;6.00;99.90;;;;;;5058630;28;20210;-88
2021/01/22 06:06:06;;;;;;;1.27;0.30;;;6.10;99.90;;;;;;5056686;28;20207;-89
2021/01/22 06:08:33;;;;;;;0.43;0.40;;;6.00;99.90;;;;;;5049377;28;20278;-89
2021/01/22 06:11:01;;;;;;;1.47;0.43;;;6.00;99.90;;;;;;5056662;28;20780;-88
2021/01/22 06:13:30;;;;;;;1.17;0.40;;;6.00;99.90;;;;;;5056524;28;20195;-90
2021/01/22 06:15:57;;;;;;;0.80;0.57;;;6.00;99.90;;;;;;5058090;28;20209;-88
2021/01/22 06:18:29;;;;;;;0.70;0.70;;;6.00;99.90;;;;;;5048608;28;20737;-89
2021/01/22 06:21:04;;;;;;;1.30;0.60;;;6.00;99.90;;;;;;5055907;28;20219;-89
2021/01/22 06:23:31;;;;;;;0.83;0.70;;;6.10;99.90;;;;;;5055641;28;20206;-88
2021/01/22 06:25:57;;;;;;;0.83;0.50;;;5.90;99.90;;;;;;5055125;28;20233;-88
2021/01/22 06:28:25;;;;;;;0.70;0.70;;;5.90;99.90;;;;;;5055732;28;20253;-89
2021/01/22 06:30:55;;;;;;;0.70;0.50;;;5.80;99.90;;;;;;5054520;28;20749;-89
2021/01/22 06:33:22;;;;;;;0.87;0.83;;;5.90;99.90;;;;;;5051572;28;20210;-88
2021/01/22 06:35:49;;;;;;;1.50;0.80;;;6.00;99.90;;;;;;5064377;28;20249;-88
2021/01/22 06:38:21;;;;;;;0.50;0.50;;;5.80;99.90;;;;;;5055564;28;20226;-88
2021/01/22 06:40:47;;;;;;;1.50;1.00;;;5.80;99.90;;;;;;5052717;28;20283;-89
2021/01/22 06:43:13;;;;;;;0.87;0.87;;;5.80;99.90;;;;;;5055812;28;20207;-87
2021/01/22 06:45:40;;;;;;;0.97;0.80;;;5.80;99.90;;;;;;5057716;28;20626;-88
2021/01/22 06:48:08;;;;;;;0.80;0.80;;;5.80;99.90;;;;;;5055905;28;20199;-89
2021/01/22 06:50:36;;;;;;;0.87;0.83;;;5.80;99.90;;;;;;5056579;28;20223;-89
2021/01/22 06:53:07;;;;;;;1.20;1.10;;;5.70;99.90;;;;;;5056805;28;20203;-88
2021/01/22 06:55:34;;;;;;;0.90;0.90;;;5.70;99.90;;;;;;5054730;28;20203;-87
2021/01/22 06:58:25;;;;;;;1.47;1.20;;;5.80;99.90;;;;;;5053078;28;20285;-88
2021/01/22 07:00:55;;;;;;;1.30;1.17;;;5.70;99.90;;;;;;5047096;28;20595;-88
2021/01/22 07:03:47;;;;;;;1.20;1.10;;;5.70;99.90;;;;;;5049709;28;20294;-88
2021/01/22 07:06:48;;;;;;;1.30;1.20;;;5.70;99.90;;;;;;5052189;28;20232;-89
2021/01/22 07:09:14;;;;;;;1.23;1.00;;;5.70;99.90;;;;;;5052244;28;20230;-88
2021/01/22 07:11:55;;;;;;;0.90;0.90;;;5.70;99.90;;;;;;5053765;28;20274;-88
2021/01/22 07:14:49;;;;;;;1.23;0.90;;;5.70;99.90;;;;;;5050378;28;20241;-88
2021/01/22 07:17:20;;;;;;;1.63;0.83;;;5.70;99.90;;;;;;5048378;28;20207;-89
2021/01/22 07:19:53;;;;;;;1.07;1.00;;;5.70;99.90;;;;;;5053308;28;20265;-89
2021/01/22 07:22:20;;;;;;;0.90;0.90;;;5.70;99.90;;;;;;5054415;28;20262;-87
2021/01/22 07:24:50;;;;;;;3.27;1.40;;;5.60;99.90;;;;;;5054670;28;20266;-88
2021/01/22 07:27:16;;;;;;;3.77;1.10;;;5.80;99.90;;;;;;5051099;28;20199;-88
2021/01/22 07:30:03;;;;;;;3.07;1.20;;;5.60;99.90;;;;;;5049846;28;20223;-88
2021/01/22 07:32:29;;;;;;;1.47;1.37;;;5.60;99.90;;;;;;5054652;28;20596;-89
2021/01/22 07:34:57;;;;;;;1.47;1.37;;;5.60;99.90;;;;;;5056008;28;20199;-88
2021/01/22 07:37:29;;;;;;;2.07;1.53;;;5.60;99.90;;;;;;5055535;28;20221;-88
2021/01/22 07:39:56;;;;;;;1.67;1.57;;;5.40;99.90;;;;;;5054102;28;20222;-88
2021/01/22 07:42:24;;;;;;;2.43;1.90;;;5.60;99.90;;;;;;5055469;28;20236;-89
2021/01/22 07:44:52;;;;;;;1.97;1.77;;;5.50;99.90;;;;;;5056360;28;20381;-88
2021/01/22 07:47:29;;;;;;;1.97;1.73;;;5.50;99.90;;;;;;5055390;28;20210;-89
2021/01/22 07:49:58;;;;;;;3.03;1.90;;;5.50;99.90;;;;;;5041729;28;20221;-88
2021/01/22 07:52:24;;;;;;;6.90;3.67;;;5.50;99.90;;;;;;5053399;28;20203;-89
2021/01/22 07:54:52;;;;;;;4.40;2.93;;;5.60;99.90;;;;;;5051111;28;20336;-88
2021/01/22 07:57:20;;;;;;;3.70;2.60;;;5.50;99.90;;;;;;5049882;28;20206;-89
2021/01/22 07:59:47;;;;;;;3.93;2.40;;;5.60;99.90;;;;;;5054417;28;20751;-88
2021/01/22 08:02:16;;;;;;;3.00;2.37;;;5.70;99.90;;;;;;5054735;28;20266;-88
2021/01/22 08:04:43;;;;;;;3.73;2.40;;;5.60;99.90;;;;;;5055635;28;20214;-88
2021/01/22 08:07:10;;;;;;;4.20;2.70;;;5.60;99.90;;;;;;5053545;28;20266;-87
2021/01/22 08:09:37;;;;;;;5.07;3.00;;;5.70;99.90;;;;;;5062478;28;20664;-87
2021/01/22 08:12:08;;;;;;;5.43;3.07;;;5.60;99.90;;;;;;5057577;28;20209;-88
2021/01/22 08:14:35;;;;;;;6.23;3.70;;;5.70;99.90;;;;;;5059436;28;20290;-88
2021/01/22 08:17:04;;;;;;;4.40;3.20;;;5.70;99.90;;;;;;5058336;28;20262;-88
2021/01/22 08:19:32;;;;;;;4.50;3.33;;;5.70;99.90;;;;;;5062491;28;20280;-88
2021/01/22 08:21:59;;;;;;;6.10;3.40;;;5.80;99.90;;;;;;5062066;28;20313;-89
2021/01/22 08:24:26;;;;;;;5.20;3.30;;;5.80;99.90;;;;;;5061908;28;20211;-88
2021/01/22 08:26:58;;;;;;;6.63;4.13;;;5.80;99.90;;;;;;5061972;28;20766;-87
2021/01/22 08:29:26;;;;;;;14.30;7.33;;;5.80;99.90;;;;;;5060538;28;20235;-88
2021/01/22 08:31:54;;;;;;;8.00;4.30;;;5.80;99.90;;;;;;5061855;28;20223;-88
2021/01/22 08:34:23;;;;;;;6.43;3.63;;;6.20;99.90;;;;;;5060057;28;20209;-89
2021/01/22 08:36:50;;;;;;;17.90;8.87;;;6.00;99.90;;;;;;5057513;28;20211;-89
2021/01/22 08:39:17;;;;;;;24.33;12.37;;;5.90;99.90;;;;;;5059592;28;20222;-89
2021/01/22 08:41:44;;;;;;;13.90;7.93;;;5.90;99.90;;;;;;5057766;28;20710;-88
2021/01/22 08:44:10;;;;;;;11.43;5.90;;;5.90;99.90;;;;;;5058324;28;20693;-88
2021/01/22 08:46:47;;;;;;;4.40;3.30;;;6.00;99.90;;;;;;5060432;28;20204;-88
2021/01/22 08:49:14;;;;;;;5.40;3.20;;;5.90;99.90;;;;;;5059555;28;20230;-88
2021/01/22 08:51:41;;;;;;;6.20;3.37;;;5.80;99.90;;;;;;5055231;28;20679;-88
2021/01/22 08:54:08;;;;;;;5.77;3.30;;;5.90;99.90;;;;;;5051024;28;20195;-88
2021/01/22 08:56:34;;;;;;;5.57;3.40;;;5.90;99.90;;;;;;5056417;28;20591;-89
2021/01/22 08:59:07;;;;;;;7.67;3.57;;;5.80;99.90;;;;;;5057919;28;20305;-89
2021/01/22 09:01:55;;;;;;;7.30;3.30;;;5.80;99.90;;;;;;5060720;28;20280;-88
2021/01/22 09:04:29;;;;;;;5.73;3.70;;;5.80;99.90;;;;;;5053457;28;20687;-88
2021/01/22 09:07:04;;;;;;;7.23;4.67;;;5.90;99.90;;;;;;5055961;28;20203;-89
2021/01/22 09:09:43;;;;;;;12.53;5.50;;;5.90;99.90;;;;;;5058645;28;20230;-88
2021/01/22 09:12:15;;;;;;;7.67;5.27;;;5.90;99.90;;;;;;5058686;28;20261;-88
2021/01/22 09:15:00;;;;;;;9.67;5.70;;;6.00;99.90;;;;;;5056100;28;20199;-88
2021/01/22 09:17:43;;;;;;;7.87;5.30;;;6.10;99.90;;;;;;5055818;28;20214;-89
2021/01/22 09:20:14;;;;;;;10.70;6.20;;;6.00;99.90;;;;;;5059948;28;20722;-88
2021/01/22 09:22:42;;;;;;;12.50;6.57;;;6.10;99.90;;;;;;5059844;28;20211;-88
2021/01/22 09:25:11;;;;;;;11.07;6.70;;;6.10;99.90;;;;;;5059057;28;20202;-89
2021/01/22 09:27:39;;;;;;;11.20;6.93;;;6.10;99.90;;;;;;5057300;28;20210;-88
2021/01/22 09:30:08;;;;;;;10.67;6.70;;;6.10;99.90;;;;;;5055868;28;20301;-88
2021/01/22 09:32:35;;;;;;;12.10;7.10;;;6.20;99.90;;;;;;5058143;28;20199;-87
2021/01/22 09:35:01;;;;;;;9.67;6.63;;;6.20;99.90;;;;;;5059056;28;20205;-88
2021/01/22 09:37:28;;;;;;;11.20;6.43;;;6.20;99.90;;;;;;5059902;28;20207;-88
2021/01/22 09:39:54;;;;;;;14.10;7.83;;;6.40;99.90;;;;;;5059332;28;20214;-88
2021/01/22 09:42:21;;;;;;;10.50;6.57;;;6.30;99.90;;;;;;5059204;28;20260;-89
2021/01/22 09:44:47;;;;;;;10.67;7.30;;;6.40;99.90;;;;;;5057433;28;20203;-88
2021/01/22 09:47:14;;;;;;;12.40;7.30;;;6.30;99.90;;;;;;5055570;28;20217;-88
2021/01/22 09:49:41;;;;;;;14.83;7.43;;;6.30;99.90;;;;;;5049532;28;20237;-91
2021/01/22 09:52:07;;;;;;;14.17;7.33;;;6.40;99.90;;;;;;5055299;28;20199;-89
2021/01/22 09:54:37;;;;;;;8.97;6.30;;;6.30;99.90;;;;;;5054180;28;20600;-87
2021/01/22 09:57:04;;;;;;;9.63;6.50;;;6.60;99.90;;;;;;5051520;28;20672;-88
2021/01/22 09:59:30;;;;;;;11.30;7.00;;;6.50;99.90;;;;;;5050935;28;20231;-87
2021/01/22 10:01:56;;;;;;;10.90;6.90;;;6.40;99.90;;;;;;5048293;28;20223;-87
2021/01/22 10:04:23;;;;;;;12.83;6.57;;;6.50;99.90;;;;;;5053276;28;20203;-87
2021/01/22 10:06:50;;;;;;;13.63;7.30;;;6.40;99.90;;;;;;5050290;28;20211;-88
2021/01/22 10:09:17;;;;;;;11.13;6.63;;;6.50;99.90;;;;;;5051188;28;20226;-87
2021/01/22 10:11:43;;;;;;;12.37;6.67;;;6.50;99.90;;;;;;5055081;28;20203;-87
2021/01/22 10:14:11;;;;;;;12.07;6.23;;;6.50;99.90;;;;;;5049785;28;20199;-87
2021/01/22 10:16:40;;;;;;;14.10;8.57;;;6.50;99.90;;;;;;5053705;28;20212;-89
2021/01/22 10:19:18;;;;;;;15.87;8.60;;;6.60;99.90;;;;;;5054920;28;20230;-87
2021/01/22 10:21:45;;;;;;;12.60;7.30;;;6.60;99.90;;;;;;5056292;28;20297;-87
2021/01/22 10:24:20;;;;;;;12.47;7.27;;;6.60;99.90;;;;;;5056756;28;20209;-87
2021/01/22 10:26:49;;;;;;;11.87;7.93;;;6.60;99.90;;;;;;5057800;28;20237;-86
2021/01/22 10:29:27;;;;;;;13.20;8.13;;;6.70;99.90;;;;;;5058455;28;20222;-88
2021/01/22 10:31:57;;;;;;;15.00;8.73;;;6.60;99.90;;;;;;5049353;28;20202;-88
2021/01/22 10:34:51;;;;;;;16.40;8.03;;;6.80;99.90;;;;;;5055300;28;20581;-90
2021/01/22 10:37:26;;;;;;;13.70;8.50;;;6.70;99.90;;;;;;5050842;28;20276;-89
2021/01/22 10:39:57;;;;;;;13.77;8.27;;;6.70;99.90;;;;;;5056659;28;20277;-88
2021/01/22 10:42:29;;;;;;;14.10;8.27;;;6.80;99.90;;;;;;5058354;28;20223;-89
2021/01/22 10:45:01;;;;;;;14.93;7.93;;;6.80;99.90;;;;;;5057219;28;20207;-89
2021/01/22 10:47:39;;;;;;;14.73;8.13;;;6.80;99.90;;;;;;5055203;28;20718;-89
2021/01/22 10:50:07;;;;;;;14.03;7.50;;;6.80;99.90;;;;;;5052153;28;20305;-89
2021/01/22 10:52:34;;;;;;;11.50;7.30;;;6.80;99.90;;;;;;5054375;28;20293;-89
2021/01/22 10:55:01;;;;;;;15.77;7.63;;;6.80;99.90;;;;;;5053822;28;20234;-89
2021/01/22 10:57:27;;;;;;;14.87;8.57;;;6.90;99.90;;;;;;5054190;28;20205;-91
2021/01/22 10:59:53;;;;;;;12.00;8.33;;;6.80;99.90;;;;;;5056684;28;20257;-87
2021/01/22 11:02:20;;;;;;;14.70;8.00;;;6.90;99.90;;;;;;5049646;28;20226;-87
2021/01/22 11:04:48;;;;;;;13.60;7.43;;;7.10;99.90;;;;;;5056991;28;20203;-89
2021/01/22 11:07:14;;;;;;;14.63;7.77;;;7.10;99.90;;;;;;5057479;28;20209;-88
2021/01/22 11:09:43;;;;;;;11.60;6.67;;;7.00;99.90;;;;;;5054469;28;20261;-88
2021/01/22 11:12:10;;;;;;;10.80;5.80;;;7.00;99.90;;;;;;5057907;28;20207;-88
2021/01/22 11:14:37;;;;;;;10.23;5.23;;;7.00;99.90;;;;;;5057637;28;20266;-89
2021/01/22 11:17:03;;;;;;;8.70;5.23;;;7.00;99.90;;;;;;5050745;28;20263;-87
2021/01/22 11:19:31;;;;;;;11.93;6.07;;;7.00;99.90;;;;;;5049528;28;20731;-87
2021/01/22 11:21:57;;;;;;;10.77;5.73;;;7.20;99.90;;;;;;5051342;28;20743;-89
2021/01/22 11:24:23;;;;;;;8.50;5.63;;;6.80;99.90;;;;;;5056537;28;20203;-88
2021/01/22 11:26:51;;;;;;;9.77;5.57;;;7.20;99.90;;;;;;5050785;28;20692;-88
2021/01/22 11:29:17;;;;;;;11.00;6.60;;;7.30;99.90;;;;;;5055522;28;20284;-87
2021/01/22 11:31:44;;;;;;;10.87;6.00;;;7.30;99.90;;;;;;5054345;28;20195;-88
2021/01/22 11:34:10;;;;;;;9.70;4.97;;;7.30;99.90;;;;;;5055315;28;20214;-89
2021/01/22 11:36:37;;;;;;;11.33;5.60;;;7.10;99.90;;;;;;5053062;28;20572;-89
2021/01/22 11:39:03;;;;;;;11.00;5.53;;;7.10;99.90;;;;;;5052769;28;20705;-89
2021/01/22 11:41:33;;;;;;;8.83;5.50;;;7.10;99.90;;;;;;5053047;28;20230;-88
2021/01/22 11:44:00;;;;;;;10.57;5.70;;;7.10;99.90;;;;;;5050282;28;20730;-89
2021/01/22 11:46:26;;;;;;;11.37;5.77;;;7.50;99.90;;;;;;5052800;28;20652;-87
2021/01/22 11:48:55;;;;;;;15.07;6.10;;;7.20;99.90;;;;;;5053561;28;20195;-87
2021/01/22 11:51:29;;;;;;;11.20;5.93;;;7.20;99.90;;;;;;5053512;28;20348;-88
2021/01/22 11:53:56;;;;;;;9.87;5.50;;;7.30;99.90;;;;;;5052196;28;20202;-87
2021/01/22 11:56:26;;;;;;;11.63;5.83;;;7.60;99.90;;;;;;5053421;28;20209;-87
2021/01/22 11:58:57;;;;;;;7.50;4.90;;;7.40;99.90;;;;;;5053689;28;20194;-87
2021/01/22 12:01:25;;;;;;;10.63;5.90;;;7.40;99.90;;;;;;5050954;28;20472;-87
2021/01/22 12:03:51;;;;;;;9.17;5.97;;;7.30;99.90;;;;;;5052989;28;20206;-85
2021/01/22 12:06:18;;;;;;;11.10;5.73;;;7.30;99.90;;;;;;5053101;28;20207;-88
2021/01/22 12:08:44;;;;;;;9.07;5.60;;;7.40;99.90;;;;;;5053542;28;20210;-87
2021/01/22 12:11:11;;;;;;;10.27;6.07;;;7.30;99.90;;;;;;5050697;28;20199;-86
2021/01/22 12:13:37;;;;;;;9.93;6.47;;;7.30;99.90;;;;;;5056725;28;20207;-87
2021/01/22 12:16:04;;;;;;;8.60;5.83;;;7.30;99.90;;;;;;5051818;28;20211;-87
2021/01/22 12:18:31;;;;;;;8.43;5.73;;;7.30;99.90;;;;;;5052061;28;20207;-87
2021/01/22 12:20:57;;;;;;;8.90;5.73;;;7.40;99.90;;;;;;5051704;28;20226;-88
2021/01/22 12:23:23;;;;;;;12.20;6.10;;;7.40;99.90;;;;;;5052575;28;20211;-87
2021/01/22 12:25:50;;;;;;;10.30;5.40;;;7.40;99.90;;;;;;5051912;28;20203;-89
2021/01/22 12:28:16;;;;;;;9.23;5.77;;;7.50;99.90;;;;;;5052000;28;20206;-88
2021/01/22 12:30:43;;;;;;;9.20;5.90;;;7.40;99.90;;;;;;5053600;28;20223;-88
2021/01/22 12:33:10;;;;;;;15.40;6.67;;;7.50;99.90;;;;;;5052010;28;20207;-87
2021/01/22 12:35:40;;;;;;;9.93;5.40;;;7.50;99.90;;;;;;5051924;28;20210;-87
2021/01/22 12:38:06;;;;;;;10.60;6.03;;;7.50;99.90;;;;;;5051212;28;20230;-86
2021/01/22 12:40:33;;;;;;;11.10;5.80;;;7.60;99.90;;;;;;5051220;28;20234;-87
2021/01/22 12:42:59;;;;;;;12.60;6.43;;;7.50;99.90;;;;;;5051905;28;20199;-88
2021/01/22 12:45:26;;;;;;;12.50;6.63;;;7.50;99.90;;;;;;5051682;28;20683;-87
2021/01/22 12:47:53;;;;;;;8.40;5.27;;;7.50;99.90;;;;;;5051399;28;20373;-88
2021/01/22 12:50:20;;;;;;;8.97;5.53;;;7.50;99.90;;;;;;5051593;28;20272;-87
2021/01/22 12:52:47;;;;;;;6.87;5.23;;;7.50;99.90;;;;;;5051299;28;20207;-87
2021/01/22 12:55:14;;;;;;;10.83;6.47;;;7.50;99.90;;;;;;5051860;28;20567;-87
2021/01/22 12:57:40;;;;;;;11.80;6.20;;;7.50;99.90;;;;;;5047262;28;20199;-88
2021/01/22 13:00:07;;;;;;;9.57;5.90;;;7.60;99.90;;;;;;5052049;28;20687;-86
2021/01/22 13:02:34;;;;;;;10.93;6.60;;;7.50;99.90;;;;;;5051687;28;20226;-88
2021/01/22 13:05:00;;;;;;;10.80;5.80;;;7.50;99.90;;;;;;5054708;28;20198;-87
2021/01/22 13:07:27;;;;;;;9.87;5.73;;;7.50;99.90;;;;;;5055681;28;20206;-87